MET'MAP v2.0
soon released !

Expected late october,
this new version will be
more efficient, smarter,
and hosted on a brand new
server x3 powerfull...
...and still free !


Not compatible ?
Try the mobile version !

LOG IN : | Subscribe | Disclaimer | Who is Orbifly ? |
ICAO code :

TAF - LFBY Dax Seyresse - 26 Feb 2020 12:02 UTC
Data Sources :     NOAA   


- Airport Elevation : 106 ft
- IATA code : XDA
- No reported NOTAMs.


LFBY - Dax Seyresse

Latest METAR recorded : 2020/02/26 11:00 LFBY 261100Z 28008KT 240V340 9000 -SHRA FEW036TCU BKN050 BKN063 10/07 Q1021
NO TAF


MET'MAP, your aeronautical weather chart ! - Copyright ORBIFLY December 2007

Programming & Development : Alexandra Zaïnal
Co-Developer : Marc-Olivier Méhu
Technical & hardware support : Manuel Goepfert
Concept & Financing : Baudouin d'Aumeries